sensor_id;sensor_type;location;lat;lon;timestamp;P1;durP1;ratioP1;P2;durP2;ratioP2
29238;SDS011;16267;48.194;11.546;2022-08-25T00:01:54;9.05;;;5.38;;
29238;SDS011;16267;48.194;11.546;2022-08-25T00:04:27;6.47;;;5.13;;
29238;SDS011;16267;48.194;11.546;2022-08-25T00:06:53;7.00;;;5.28;;
29238;SDS011;16267;48.194;11.546;2022-08-25T00:09:21;6.97;;;5.35;;
29238;SDS011;16267;48.194;11.546;2022-08-25T00:11:50;9.20;;;5.45;;
29238;SDS011;16267;48.194;11.546;2022-08-25T00:14:18;8.80;;;5.88;;
29238;SDS011;16267;48.194;11.546;2022-08-25T00:16:54;7.18;;;5.28;;
29238;SDS011;16267;48.194;11.546;2022-08-25T00:19:22;6.78;;;5.03;;
29238;SDS011;16267;48.194;11.546;2022-08-25T00:21:53;6.88;;;5.15;;
29238;SDS011;16267;48.194;11.546;2022-08-25T00:24:20;8.90;;;5.30;;
29238;SDS011;16267;48.194;11.546;2022-08-25T00:26:47;7.60;;;5.97;;
29238;SDS011;16267;48.194;11.546;2022-08-25T00:32:02;8.70;;;5.80;;
29238;SDS011;16267;48.194;11.546;2022-08-25T00:34:31;7.72;;;5.85;;
29238;SDS011;16267;48.194;11.546;2022-08-25T00:37:02;7.43;;;5.32;;
29238;SDS011;16267;48.194;11.546;2022-08-25T00:42:00;6.35;;;5.57;;
29238;SDS011;16267;48.194;11.546;2022-08-25T00:44:28;7.18;;;5.55;;
29238;SDS011;16267;48.194;11.546;2022-08-25T00:46:57;6.22;;;5.45;;
29238;SDS011;16267;48.194;11.546;2022-08-25T00:49:45;9.30;;;5.88;;
29238;SDS011;16267;48.194;11.546;2022-08-25T00:52:22;7.65;;;5.88;;
29238;SDS011;16267;48.194;11.546;2022-08-25T00:55:06;9.50;;;6.32;;
29238;SDS011;16267;48.194;11.546;2022-08-25T00:57:44;6.28;;;5.28;;
29238;SDS011;16267;48.194;11.546;2022-08-25T01:00:36;9.25;;;5.85;;
29238;SDS011;16267;48.194;11.546;2022-08-25T01:03:05;7.07;;;5.32;;
29238;SDS011;16267;48.194;11.546;2022-08-25T01:05:31;6.93;;;5.43;;
29238;SDS011;16267;48.194;11.546;2022-08-25T01:07:58;7.32;;;5.78;;
29238;SDS011;16267;48.194;11.546;2022-08-25T01:10:30;8.50;;;5.55;;
29238;SDS011;16267;48.194;11.546;2022-08-25T01:13:05;8.35;;;5.80;;
29238;SDS011;16267;48.194;11.546;2022-08-25T01:15:44;5.95;;;4.97;;
29238;SDS011;16267;48.194;11.546;2022-08-25T01:18:12;6.70;;;5.60;;
29238;SDS011;16267;48.194;11.546;2022-08-25T01:20:38;8.18;;;5.88;;
29238;SDS011;16267;48.194;11.546;2022-08-25T01:23:10;7.30;;;5.57;;
29238;SDS011;16267;48.194;11.546;2022-08-25T01:26:26;6.07;;;5.47;;
29238;SDS011;16267;48.194;11.546;2022-08-25T01:28:55;10.65;;;6.50;;
29238;SDS011;16267;48.194;11.546;2022-08-25T01:31:42;10.20;;;5.72;;
29238;SDS011;16267;48.194;11.546;2022-08-25T01:34:09;6.90;;;5.78;;
29238;SDS011;16267;48.194;11.546;2022-08-25T01:36:36;7.43;;;5.80;;
29238;SDS011;16267;48.194;11.546;2022-08-25T01:39:03;6.80;;;6.05;;
29238;SDS011;16267;48.194;11.546;2022-08-25T01:43:59;9.80;;;6.50;;
29238;SDS011;16267;48.194;11.546;2022-08-25T01:46:30;6.80;;;5.88;;
29238;SDS011;16267;48.194;11.546;2022-08-25T01:48:57;7.03;;;6.22;;
29238;SDS011;16267;48.194;11.546;2022-08-25T01:51:25;7.75;;;5.93;;
29238;SDS011;16267;48.194;11.546;2022-08-25T01:53:57;7.40;;;5.63;;
29238;SDS011;16267;48.194;11.546;2022-08-25T01:56:23;11.15;;;6.10;;
29238;SDS011;16267;48.194;11.546;2022-08-25T01:58:48;9.02;;;6.05;;
29238;SDS011;16267;48.194;11.546;2022-08-25T02:01:16;7.22;;;5.93;;
29238;SDS011;16267;48.194;11.546;2022-08-25T02:03:49;7.93;;;6.22;;
29238;SDS011;16267;48.194;11.546;2022-08-25T02:06:22;7.00;;;5.80;;
29238;SDS011;16267;48.194;11.546;2022-08-25T02:08:57;8.38;;;6.82;;
29238;SDS011;16267;48.194;11.546;2022-08-25T02:11:29;9.07;;;7.18;;
29238;SDS011;16267;48.194;11.546;2022-08-25T02:13:57;9.05;;;7.50;;
29238;SDS011;16267;48.194;11.546;2022-08-25T02:16:30;9.48;;;6.82;;
29238;SDS011;16267;48.194;11.546;2022-08-25T02:18:59;11.32;;;7.50;;
29238;SDS011;16267;48.194;11.546;2022-08-25T02:21:26;9.32;;;7.40;;
29238;SDS011;16267;48.194;11.546;2022-08-25T02:23:52;9.25;;;7.38;;
29238;SDS011;16267;48.194;11.546;2022-08-25T02:26:18;9.52;;;7.40;;
29238;SDS011;16267;48.194;11.546;2022-08-25T02:28:48;10.38;;;7.50;;
29238;SDS011;16267;48.194;11.546;2022-08-25T02:31:16;11.32;;;7.72;;
29238;SDS011;16267;48.194;11.546;2022-08-25T02:33:45;10.70;;;7.10;;
29238;SDS011;16267;48.194;11.546;2022-08-25T02:36:12;10.52;;;7.60;;
29238;SDS011;16267;48.194;11.546;2022-08-25T02:38:38;8.52;;;7.25;;
29238;SDS011;16267;48.194;11.546;2022-08-25T02:41:08;9.30;;;7.18;;
29238;SDS011;16267;48.194;11.546;2022-08-25T02:43:39;14.27;;;8.15;;
29238;SDS011;16267;48.194;11.546;2022-08-25T02:46:07;11.05;;;7.32;;
29238;SDS011;16267;48.194;11.546;2022-08-25T02:48:34;10.20;;;7.60;;
29238;SDS011;16267;48.194;11.546;2022-08-25T02:51:01;9.15;;;6.90;;
29238;SDS011;16267;48.194;11.546;2022-08-25T02:53:27;13.25;;;8.20;;
29238;SDS011;16267;48.194;11.546;2022-08-25T02:55:54;10.02;;;7.55;;
29238;SDS011;16267;48.194;11.546;2022-08-25T02:58:20;10.75;;;7.50;;
29238;SDS011;16267;48.194;11.546;2022-08-25T03:00:47;10.80;;;8.13;;
29238;SDS011;16267;48.194;11.546;2022-08-25T03:03:13;10.50;;;7.22;;
29238;SDS011;16267;48.194;11.546;2022-08-25T03:05:40;14.00;;;7.50;;
29238;SDS011;16267;48.194;11.546;2022-08-25T03:08:06;10.07;;;7.15;;
29238;SDS011;16267;48.194;11.546;2022-08-25T03:10:34;8.90;;;7.28;;
29238;SDS011;16267;48.194;11.546;2022-08-25T03:13:00;11.00;;;8.25;;
29238;SDS011;16267;48.194;11.546;2022-08-25T03:15:26;9.30;;;8.27;;
29238;SDS011;16267;48.194;11.546;2022-08-25T03:17:53;9.52;;;7.53;;
29238;SDS011;16267;48.194;11.546;2022-08-25T03:20:20;10.93;;;7.85;;
29238;SDS011;16267;48.194;11.546;2022-08-25T03:22:48;10.38;;;7.90;;
29238;SDS011;16267;48.194;11.546;2022-08-25T03:25:15;11.98;;;8.38;;
29238;SDS011;16267;48.194;11.546;2022-08-25T03:27:59;13.23;;;8.43;;
29238;SDS011;16267;48.194;11.546;2022-08-25T03:30:25;8.80;;;7.90;;
29238;SDS011;16267;48.194;11.546;2022-08-25T03:32:52;10.93;;;8.52;;
29238;SDS011;16267;48.194;11.546;2022-08-25T03:35:18;12.45;;;8.20;;
29238;SDS011;16267;48.194;11.546;2022-08-25T03:37:44;13.20;;;8.30;;
29238;SDS011;16267;48.194;11.546;2022-08-25T03:40:12;10.73;;;7.72;;
29238;SDS011;16267;48.194;11.546;2022-08-25T03:42:42;10.45;;;8.23;;
29238;SDS011;16267;48.194;11.546;2022-08-25T03:45:10;11.27;;;8.32;;
29238;SDS011;16267;48.194;11.546;2022-08-25T03:47:38;11.10;;;8.10;;
29238;SDS011;16267;48.194;11.546;2022-08-25T03:50:05;11.65;;;8.40;;
29238;SDS011;16267;48.194;11.546;2022-08-25T03:52:35;11.25;;;8.50;;
29238;SDS011;16267;48.194;11.546;2022-08-25T03:55:02;10.95;;;8.23;;
29238;SDS011;16267;48.194;11.546;2022-08-25T03:57:31;12.20;;;8.18;;
29238;SDS011;16267;48.194;11.546;2022-08-25T03:59:57;11.75;;;8.98;;
29238;SDS011;16267;48.194;11.546;2022-08-25T04:02:23;11.25;;;9.05;;
29238;SDS011;16267;48.194;11.546;2022-08-25T04:04:49;12.40;;;8.60;;
29238;SDS011;16267;48.194;11.546;2022-08-25T04:07:15;11.88;;;9.18;;
29238;SDS011;16267;48.194;11.546;2022-08-25T04:09:42;12.70;;;8.90;;
29238;SDS011;16267;48.194;11.546;2022-08-25T04:12:08;15.45;;;9.30;;
29238;SDS011;16267;48.194;11.546;2022-08-25T04:14:34;13.45;;;9.52;;
29238;SDS011;16267;48.194;11.546;2022-08-25T04:17:00;14.55;;;9.20;;
29238;SDS011;16267;48.194;11.546;2022-08-25T04:19:27;10.38;;;8.88;;
29238;SDS011;16267;48.194;11.546;2022-08-25T04:21:53;12.05;;;8.77;;
29238;SDS011;16267;48.194;11.546;2022-08-25T04:24:19;13.63;;;10.15;;
29238;SDS011;16267;48.194;11.546;2022-08-25T04:26:47;14.75;;;9.68;;
29238;SDS011;16267;48.194;11.546;2022-08-25T04:29:17;13.65;;;8.90;;
29238;SDS011;16267;48.194;11.546;2022-08-25T04:31:46;10.82;;;8.35;;
29238;SDS011;16267;48.194;11.546;2022-08-25T04:34:16;11.32;;;8.45;;
29238;SDS011;16267;48.194;11.546;2022-08-25T04:36:44;11.93;;;8.35;;
29238;SDS011;16267;48.194;11.546;2022-08-25T04:39:10;13.15;;;9.77;;
29238;SDS011;16267;48.194;11.546;2022-08-25T04:41:37;10.32;;;7.53;;
29238;SDS011;16267;48.194;11.546;2022-08-25T04:44:03;14.55;;;10.10;;
29238;SDS011;16267;48.194;11.546;2022-08-25T04:46:30;13.18;;;9.05;;
29238;SDS011;16267;48.194;11.546;2022-08-25T04:48:58;14.55;;;9.82;;
29238;SDS011;16267;48.194;11.546;2022-08-25T04:51:31;11.73;;;9.13;;
29238;SDS011;16267;48.194;11.546;2022-08-25T04:54:01;12.57;;;9.27;;
29238;SDS011;16267;48.194;11.546;2022-08-25T04:56:31;12.80;;;9.80;;
29238;SDS011;16267;48.194;11.546;2022-08-25T04:59:00;11.32;;;9.55;;
29238;SDS011;16267;48.194;11.546;2022-08-25T05:01:34;13.68;;;9.63;;
29238;SDS011;16267;48.194;11.546;2022-08-25T05:04:01;17.33;;;9.75;;
29238;SDS011;16267;48.194;11.546;2022-08-25T05:06:30;13.73;;;9.20;;
29238;SDS011;16267;48.194;11.546;2022-08-25T05:08:57;13.57;;;10.30;;
29238;SDS011;16267;48.194;11.546;2022-08-25T05:11:24;14.90;;;9.63;;
29238;SDS011;16267;48.194;11.546;2022-08-25T05:13:51;14.65;;;9.75;;
29238;SDS011;16267;48.194;11.546;2022-08-25T05:16:19;14.32;;;9.32;;
29238;SDS011;16267;48.194;11.546;2022-08-25T05:18:46;14.98;;;10.38;;
29238;SDS011;16267;48.194;11.546;2022-08-25T05:21:14;15.20;;;10.30;;
29238;SDS011;16267;48.194;11.546;2022-08-25T05:23:43;13.40;;;10.18;;
29238;SDS011;16267;48.194;11.546;2022-08-25T05:26:15;13.48;;;9.95;;
29238;SDS011;16267;48.194;11.546;2022-08-25T05:28:47;13.95;;;9.82;;
29238;SDS011;16267;48.194;11.546;2022-08-25T05:31:17;15.50;;;9.80;;
29238;SDS011;16267;48.194;11.546;2022-08-25T05:33:44;13.63;;;10.82;;
29238;SDS011;16267;48.194;11.546;2022-08-25T05:36:20;15.93;;;10.85;;
29238;SDS011;16267;48.194;11.546;2022-08-25T05:38:47;16.17;;;9.48;;
29238;SDS011;16267;48.194;11.546;2022-08-25T05:41:15;20.50;;;10.52;;
29238;SDS011;16267;48.194;11.546;2022-08-25T05:43:44;16.30;;;10.93;;
29238;SDS011;16267;48.194;11.546;2022-08-25T05:46:13;15.23;;;10.38;;
29238;SDS011;16267;48.194;11.546;2022-08-25T05:48:41;15.02;;;10.18;;
29238;SDS011;16267;48.194;11.546;2022-08-25T05:51:09;17.65;;;11.35;;
29238;SDS011;16267;48.194;11.546;2022-08-25T05:53:37;18.02;;;10.88;;
29238;SDS011;16267;48.194;11.546;2022-08-25T05:56:05;15.18;;;11.27;;
29238;SDS011;16267;48.194;11.546;2022-08-25T05:58:32;18.50;;;10.60;;
29238;SDS011;16267;48.194;11.546;2022-08-25T06:00:58;20.35;;;10.32;;
29238;SDS011;16267;48.194;11.546;2022-08-25T06:03:43;18.00;;;10.93;;
29238;SDS011;16267;48.194;11.546;2022-08-25T06:06:11;15.10;;;11.23;;
29238;SDS011;16267;48.194;11.546;2022-08-25T06:08:37;22.83;;;12.35;;
29238;SDS011;16267;48.194;11.546;2022-08-25T06:11:05;14.85;;;10.82;;
29238;SDS011;16267;48.194;11.546;2022-08-25T06:13:33;16.38;;;11.00;;
29238;SDS011;16267;48.194;11.546;2022-08-25T06:15:59;17.30;;;11.25;;
29238;SDS011;16267;48.194;11.546;2022-08-25T06:18:25;16.95;;;10.93;;
29238;SDS011;16267;48.194;11.546;2022-08-25T06:20:51;25.00;;;10.55;;
29238;SDS011;16267;48.194;11.546;2022-08-25T06:23:17;18.45;;;11.13;;
29238;SDS011;16267;48.194;11.546;2022-08-25T06:25:50;18.35;;;13.13;;
29238;SDS011;16267;48.194;11.546;2022-08-25T06:28:18;17.55;;;11.55;;
29238;SDS011;16267;48.194;11.546;2022-08-25T06:30:45;16.73;;;11.23;;
29238;SDS011;16267;48.194;11.546;2022-08-25T06:33:12;15.65;;;10.00;;
29238;SDS011;16267;48.194;11.546;2022-08-25T06:35:42;17.73;;;10.38;;
29238;SDS011;16267;48.194;11.546;2022-08-25T06:38:09;17.83;;;12.07;;
29238;SDS011;16267;48.194;11.546;2022-08-25T06:40:36;17.50;;;11.23;;
29238;SDS011;16267;48.194;11.546;2022-08-25T06:43:02;15.18;;;10.05;;
29238;SDS011;16267;48.194;11.546;2022-08-25T06:45:31;17.65;;;11.25;;
29238;SDS011;16267;48.194;11.546;2022-08-25T06:47:57;15.07;;;10.90;;
29238;SDS011;16267;48.194;11.546;2022-08-25T06:50:23;14.32;;;10.98;;
29238;SDS011;16267;48.194;11.546;2022-08-25T06:52:49;17.98;;;11.65;;
29238;SDS011;16267;48.194;11.546;2022-08-25T06:55:15;15.10;;;10.13;;
29238;SDS011;16267;48.194;11.546;2022-08-25T06:57:41;14.80;;;10.70;;
29238;SDS011;16267;48.194;11.546;2022-08-25T07:00:07;12.45;;;9.82;;
29238;SDS011;16267;48.194;11.546;2022-08-25T07:02:35;17.85;;;10.57;;
29238;SDS011;16267;48.194;11.546;2022-08-25T07:05:02;14.65;;;10.32;;
29238;SDS011;16267;48.194;11.546;2022-08-25T07:07:29;17.75;;;10.73;;
29238;SDS011;16267;48.194;11.546;2022-08-25T07:09:55;13.30;;;9.80;;
29238;SDS011;16267;48.194;11.546;2022-08-25T07:12:21;14.73;;;10.63;;
29238;SDS011;16267;48.194;11.546;2022-08-25T07:14:48;12.45;;;10.30;;
29238;SDS011;16267;48.194;11.546;2022-08-25T07:17:14;13.82;;;8.95;;
29238;SDS011;16267;48.194;11.546;2022-08-25T07:19:41;19.90;;;9.57;;
29238;SDS011;16267;48.194;11.546;2022-08-25T07:22:07;15.43;;;9.85;;
29238;SDS011;16267;48.194;11.546;2022-08-25T07:24:32;14.98;;;9.13;;
29238;SDS011;16267;48.194;11.546;2022-08-25T07:26:58;11.63;;;8.18;;
29238;SDS011;16267;48.194;11.546;2022-08-25T07:29:25;13.95;;;8.02;;
29238;SDS011;16267;48.194;11.546;2022-08-25T07:31:53;12.23;;;8.35;;
29238;SDS011;16267;48.194;11.546;2022-08-25T07:34:19;18.52;;;8.73;;
29238;SDS011;16267;48.194;11.546;2022-08-25T07:37:03;14.30;;;8.10;;
29238;SDS011;16267;48.194;11.546;2022-08-25T07:39:30;13.15;;;8.43;;
29238;SDS011;16267;48.194;11.546;2022-08-25T07:41:57;9.98;;;7.72;;
29238;SDS011;16267;48.194;11.546;2022-08-25T07:44:24;11.45;;;8.70;;
29238;SDS011;16267;48.194;11.546;2022-08-25T07:46:51;17.85;;;8.30;;
29238;SDS011;16267;48.194;11.546;2022-08-25T07:49:18;10.15;;;8.00;;
29238;SDS011;16267;48.194;11.546;2022-08-25T07:51:46;10.30;;;7.65;;
29238;SDS011;16267;48.194;11.546;2022-08-25T07:54:12;10.32;;;7.50;;
29238;SDS011;16267;48.194;11.546;2022-08-25T07:56:38;11.23;;;7.75;;
29238;SDS011;16267;48.194;11.546;2022-08-25T07:59:07;12.00;;;8.30;;
29238;SDS011;16267;48.194;11.546;2022-08-25T08:01:33;11.85;;;7.20;;
29238;SDS011;16267;48.194;11.546;2022-08-25T08:04:00;11.20;;;7.72;;
29238;SDS011;16267;48.194;11.546;2022-08-25T08:06:27;13.48;;;8.63;;
29238;SDS011;16267;48.194;11.546;2022-08-25T08:08:53;9.52;;;7.13;;
29238;SDS011;16267;48.194;11.546;2022-08-25T08:11:21;10.52;;;7.60;;
29238;SDS011;16267;48.194;11.546;2022-08-25T08:13:53;14.65;;;7.45;;
29238;SDS011;16267;48.194;11.546;2022-08-25T08:16:21;13.50;;;6.97;;
29238;SDS011;16267;48.194;11.546;2022-08-25T08:18:50;7.70;;;6.68;;
29238;SDS011;16267;48.194;11.546;2022-08-25T08:21:20;10.75;;;7.00;;
29238;SDS011;16267;48.194;11.546;2022-08-25T08:23:49;10.63;;;7.05;;
29238;SDS011;16267;48.194;11.546;2022-08-25T08:26:16;13.00;;;7.20;;
29238;SDS011;16267;48.194;11.546;2022-08-25T08:28:43;13.23;;;6.63;;
29238;SDS011;16267;48.194;11.546;2022-08-25T08:31:09;8.25;;;6.20;;
29238;SDS011;16267;48.194;11.546;2022-08-25T08:33:35;9.65;;;6.00;;
29238;SDS011;16267;48.194;11.546;2022-08-25T08:36:03;10.00;;;6.60;;
29238;SDS011;16267;48.194;11.546;2022-08-25T08:38:32;10.65;;;6.45;;
29238;SDS011;16267;48.194;11.546;2022-08-25T08:44:32;8.65;;;5.82;;
29238;SDS011;16267;48.194;11.546;2022-08-25T08:50:47;9.40;;;6.30;;
29238;SDS011;16267;48.194;11.546;2022-08-25T08:56:05;8.65;;;6.07;;
29238;SDS011;16267;48.194;11.546;2022-08-25T08:58:50;9.80;;;6.03;;
29238;SDS011;16267;48.194;11.546;2022-08-25T09:01:43;11.43;;;5.90;;
29238;SDS011;16267;48.194;11.546;2022-08-25T09:07:16;8.38;;;5.75;;
29238;SDS011;16267;48.194;11.546;2022-08-25T09:09:46;7.65;;;6.10;;
29238;SDS011;16267;48.194;11.546;2022-08-25T09:18:45;7.53;;;6.13;;
29238;SDS011;16267;48.194;11.546;2022-08-25T09:24:06;10.00;;;6.15;;
29238;SDS011;16267;48.194;11.546;2022-08-25T09:26:43;8.13;;;5.70;;
29238;SDS011;16267;48.194;11.546;2022-08-25T09:29:18;10.25;;;5.60;;
29238;SDS011;16267;48.194;11.546;2022-08-25T09:31:48;10.48;;;6.22;;
29238;SDS011;16267;48.194;11.546;2022-08-25T09:34:19;9.18;;;6.45;;
29238;SDS011;16267;48.194;11.546;2022-08-25T09:36:48;9.13;;;6.03;;
29238;SDS011;16267;48.194;11.546;2022-08-25T09:39:17;6.68;;;5.68;;
29238;SDS011;16267;48.194;11.546;2022-08-25T09:41:46;7.40;;;5.30;;
29238;SDS011;16267;48.194;11.546;2022-08-25T09:52:18;9.02;;;5.85;;
29238;SDS011;16267;48.194;11.546;2022-08-25T10:00:19;7.47;;;5.57;;
29238;SDS011;16267;48.194;11.546;2022-08-25T10:06:17;7.90;;;5.03;;
29238;SDS011;16267;48.194;11.546;2022-08-25T10:08:38;8.55;;;5.70;;
29238;SDS011;16267;48.194;11.546;2022-08-25T10:11:11;6.07;;;4.95;;
29238;SDS011;16267;48.194;11.546;2022-08-25T10:14:00;9.30;;;5.78;;
29238;SDS011;16267;48.194;11.546;2022-08-25T10:19:52;8.02;;;5.38;;
29238;SDS011;16267;48.194;11.546;2022-08-25T10:22:37;7.72;;;5.03;;
29238;SDS011;16267;48.194;11.546;2022-08-25T10:25:05;9.13;;;4.93;;
29238;SDS011;16267;48.194;11.546;2022-08-25T10:30:25;8.65;;;5.20;;
29238;SDS011;16267;48.194;11.546;2022-08-25T10:38:59;8.88;;;5.68;;
29238;SDS011;16267;48.194;11.546;2022-08-25T10:41:33;8.73;;;6.32;;
29238;SDS011;16267;48.194;11.546;2022-08-25T10:44:23;7.55;;;5.53;;
29238;SDS011;16267;48.194;11.546;2022-08-25T10:50:26;10.07;;;5.70;;
29238;SDS011;16267;48.194;11.546;2022-08-25T10:56:02;8.52;;;5.88;;
29238;SDS011;16267;48.194;11.546;2022-08-25T11:04:37;10.60;;;6.18;;
29238;SDS011;16267;48.194;11.546;2022-08-25T11:07:33;9.98;;;5.18;;
29238;SDS011;16267;48.194;11.546;2022-08-25T11:10:05;13.45;;;6.80;;
29238;SDS011;16267;48.194;11.546;2022-08-25T11:12:38;10.57;;;6.20;;
29238;SDS011;16267;48.194;11.546;2022-08-25T11:15:19;9.65;;;6.13;;
29238;SDS011;16267;48.194;11.546;2022-08-25T11:21:02;10.00;;;6.30;;
29238;SDS011;16267;48.194;11.546;2022-08-25T11:23:39;9.70;;;6.25;;
29238;SDS011;16267;48.194;11.546;2022-08-25T11:26:12;10.00;;;5.82;;
29238;SDS011;16267;48.194;11.546;2022-08-25T11:28:51;11.82;;;6.00;;
29238;SDS011;16267;48.194;11.546;2022-08-25T11:31:22;11.40;;;6.65;;
29238;SDS011;16267;48.194;11.546;2022-08-25T11:33:50;7.88;;;6.13;;
29238;SDS011;16267;48.194;11.546;2022-08-25T11:39:14;12.77;;;6.22;;
29238;SDS011;16267;48.194;11.546;2022-08-25T11:47:59;11.02;;;6.80;;
29238;SDS011;16267;48.194;11.546;2022-08-25T11:50:30;10.00;;;6.53;;
29238;SDS011;16267;48.194;11.546;2022-08-25T11:53:29;9.60;;;6.15;;
29238;SDS011;16267;48.194;11.546;2022-08-25T11:56:05;13.68;;;6.43;;
29238;SDS011;16267;48.194;11.546;2022-08-25T11:58:53;10.38;;;5.97;;
29238;SDS011;16267;48.194;11.546;2022-08-25T12:09:31;14.68;;;6.93;;
29238;SDS011;16267;48.194;11.546;2022-08-25T12:11:58;15.30;;;6.88;;
29238;SDS011;16267;48.194;11.546;2022-08-25T12:18:19;12.98;;;6.38;;
29238;SDS011;16267;48.194;11.546;2022-08-25T12:23:33;10.00;;;6.38;;
29238;SDS011;16267;48.194;11.546;2022-08-25T12:29:19;16.98;;;6.97;;
29238;SDS011;16267;48.194;11.546;2022-08-25T12:37:25;11.73;;;6.63;;
29238;SDS011;16267;48.194;11.546;2022-08-25T12:39:56;19.85;;;7.35;;
29238;SDS011;16267;48.194;11.546;2022-08-25T12:47:43;19.05;;;7.63;;
29238;SDS011;16267;48.194;11.546;2022-08-25T12:50:34;17.80;;;7.25;;
29238;SDS011;16267;48.194;11.546;2022-08-25T12:55:51;19.02;;;7.00;;
29238;SDS011;16267;48.194;11.546;2022-08-25T12:58:32;15.38;;;7.63;;
29238;SDS011;16267;48.194;11.546;2022-08-25T13:01:30;16.65;;;7.30;;
29238;SDS011;16267;48.194;11.546;2022-08-25T13:15:38;19.30;;;7.30;;
29238;SDS011;16267;48.194;11.546;2022-08-25T13:18:14;20.10;;;7.35;;
29238;SDS011;16267;48.194;11.546;2022-08-25T13:21:00;18.75;;;7.32;;
29238;SDS011;16267;48.194;11.546;2022-08-25T13:23:50;13.82;;;7.05;;
29238;SDS011;16267;48.194;11.546;2022-08-25T13:26:23;22.52;;;6.72;;
29238;SDS011;16267;48.194;11.546;2022-08-25T13:29:12;16.75;;;7.20;;
29238;SDS011;16267;48.194;11.546;2022-08-25T13:32:05;17.83;;;7.63;;
29238;SDS011;16267;48.194;11.546;2022-08-25T13:34:37;17.33;;;7.35;;
29238;SDS011;16267;48.194;11.546;2022-08-25T13:37:10;18.42;;;7.80;;
29238;SDS011;16267;48.194;11.546;2022-08-25T13:40:13;21.98;;;7.78;;
29238;SDS011;16267;48.194;11.546;2022-08-25T13:42:43;21.58;;;7.20;;
29238;SDS011;16267;48.194;11.546;2022-08-25T13:45:14;22.35;;;7.30;;
29238;SDS011;16267;48.194;11.546;2022-08-25T13:47:52;19.48;;;7.60;;
29238;SDS011;16267;48.194;11.546;2022-08-25T13:58:10;17.92;;;6.75;;
29238;SDS011;16267;48.194;11.546;2022-08-25T14:00:48;13.13;;;6.55;;
29238;SDS011;16267;48.194;11.546;2022-08-25T14:03:37;19.90;;;6.55;;
29238;SDS011;16267;48.194;11.546;2022-08-25T14:06:08;14.75;;;7.00;;
29238;SDS011;16267;48.194;11.546;2022-08-25T14:08:46;13.93;;;6.38;;
29238;SDS011;16267;48.194;11.546;2022-08-25T14:14:01;15.18;;;6.35;;
29238;SDS011;16267;48.194;11.546;2022-08-25T14:17:18;13.95;;;5.90;;
29238;SDS011;16267;48.194;11.546;2022-08-25T14:19:31;25.27;;;6.63;;
29238;SDS011;16267;48.194;11.546;2022-08-25T14:21:59;20.05;;;7.32;;
29238;SDS011;16267;48.194;11.546;2022-08-25T14:24:27;15.18;;;7.18;;
29238;SDS011;16267;48.194;11.546;2022-08-25T14:26:58;20.25;;;6.75;;
29238;SDS011;16267;48.194;11.546;2022-08-25T14:29:26;19.33;;;7.63;;
29238;SDS011;16267;48.194;11.546;2022-08-25T14:31:53;19.23;;;7.78;;
29238;SDS011;16267;48.194;11.546;2022-08-25T14:34:20;14.88;;;7.35;;
29238;SDS011;16267;48.194;11.546;2022-08-25T14:36:49;15.73;;;7.35;;
29238;SDS011;16267;48.194;11.546;2022-08-25T14:39:16;16.67;;;7.40;;
29238;SDS011;16267;48.194;11.546;2022-08-25T14:41:42;24.48;;;7.32;;
29238;SDS011;16267;48.194;11.546;2022-08-25T14:44:10;19.83;;;7.63;;
29238;SDS011;16267;48.194;11.546;2022-08-25T14:46:40;19.63;;;7.00;;
29238;SDS011;16267;48.194;11.546;2022-08-25T14:49:14;18.50;;;6.82;;
29238;SDS011;16267;48.194;11.546;2022-08-25T14:51:56;14.95;;;7.03;;
29238;SDS011;16267;48.194;11.546;2022-08-25T14:54:30;20.33;;;7.68;;
29238;SDS011;16267;48.194;11.546;2022-08-25T14:56:56;18.58;;;7.50;;
29238;SDS011;16267;48.194;11.546;2022-08-25T14:59:22;25.13;;;7.88;;
29238;SDS011;16267;48.194;11.546;2022-08-25T15:01:49;20.67;;;7.07;;
29238;SDS011;16267;48.194;11.546;2022-08-25T15:04:22;14.77;;;7.18;;
29238;SDS011;16267;48.194;11.546;2022-08-25T15:06:56;20.00;;;7.43;;
29238;SDS011;16267;48.194;11.546;2022-08-25T15:09:25;27.45;;;7.40;;
29238;SDS011;16267;48.194;11.546;2022-08-25T15:11:52;24.40;;;7.45;;
29238;SDS011;16267;48.194;11.546;2022-08-25T15:14:21;31.23;;;7.78;;
29238;SDS011;16267;48.194;11.546;2022-08-25T15:16:50;23.92;;;7.30;;
29238;SDS011;16267;48.194;11.546;2022-08-25T15:19:21;14.63;;;7.30;;
29238;SDS011;16267;48.194;11.546;2022-08-25T15:21:50;18.73;;;7.13;;
29238;SDS011;16267;48.194;11.546;2022-08-25T15:24:17;21.20;;;7.40;;
29238;SDS011;16267;48.194;11.546;2022-08-25T15:29:25;17.13;;;6.60;;
29238;SDS011;16267;48.194;11.546;2022-08-25T15:31:55;23.35;;;7.20;;
29238;SDS011;16267;48.194;11.546;2022-08-25T15:34:22;28.00;;;8.60;;
29238;SDS011;16267;48.194;11.546;2022-08-25T15:36:48;20.38;;;7.22;;
29238;SDS011;16267;48.194;11.546;2022-08-25T15:39:14;20.73;;;6.88;;
29238;SDS011;16267;48.194;11.546;2022-08-25T15:41:40;19.60;;;7.90;;
29238;SDS011;16267;48.194;11.546;2022-08-25T15:44:07;24.38;;;8.07;;
29238;SDS011;16267;48.194;11.546;2022-08-25T15:46:35;21.15;;;7.35;;
29238;SDS011;16267;48.194;11.546;2022-08-25T15:49:02;18.35;;;7.07;;
29238;SDS011;16267;48.194;11.546;2022-08-25T15:51:29;23.20;;;7.80;;
29238;SDS011;16267;48.194;11.546;2022-08-25T15:53:55;27.10;;;7.25;;
29238;SDS011;16267;48.194;11.546;2022-08-25T15:56:22;17.42;;;7.30;;
29238;SDS011;16267;48.194;11.546;2022-08-25T15:58:48;22.48;;;7.65;;
29238;SDS011;16267;48.194;11.546;2022-08-25T16:01:16;21.13;;;7.38;;
29238;SDS011;16267;48.194;11.546;2022-08-25T16:04:08;20.25;;;7.28;;
29238;SDS011;16267;48.194;11.546;2022-08-25T16:06:35;16.88;;;6.63;;
29238;SDS011;16267;48.194;11.546;2022-08-25T16:09:02;17.85;;;6.53;;
29238;SDS011;16267;48.194;11.546;2022-08-25T16:11:30;21.55;;;6.85;;
29238;SDS011;16267;48.194;11.546;2022-08-25T16:13:58;19.85;;;6.85;;
29238;SDS011;16267;48.194;11.546;2022-08-25T16:16:26;16.00;;;6.85;;
29238;SDS011;16267;48.194;11.546;2022-08-25T16:18:54;21.50;;;7.40;;
29238;SDS011;16267;48.194;11.546;2022-08-25T16:21:25;21.13;;;7.20;;
29238;SDS011;16267;48.194;11.546;2022-08-25T16:23:58;19.30;;;6.57;;
29238;SDS011;16267;48.194;11.546;2022-08-25T16:26:28;12.90;;;5.50;;
29238;SDS011;16267;48.194;11.546;2022-08-25T16:28:54;24.10;;;6.00;;
29238;SDS011;16267;48.194;11.546;2022-08-25T16:31:20;19.10;;;5.82;;
29238;SDS011;16267;48.194;11.546;2022-08-25T16:33:46;21.77;;;6.55;;
29238;SDS011;16267;48.194;11.546;2022-08-25T16:36:14;15.40;;;6.15;;
29238;SDS011;16267;48.194;11.546;2022-08-25T16:38:44;16.38;;;5.93;;
29238;SDS011;16267;48.194;11.546;2022-08-25T16:41:13;13.88;;;6.05;;
29238;SDS011;16267;48.194;11.546;2022-08-25T16:43:43;19.40;;;7.18;;
29238;SDS011;16267;48.194;11.546;2022-08-25T16:46:10;17.95;;;7.30;;
29238;SDS011;16267;48.194;11.546;2022-08-25T16:48:39;24.13;;;6.57;;
29238;SDS011;16267;48.194;11.546;2022-08-25T16:51:13;22.15;;;6.82;;
29238;SDS011;16267;48.194;11.546;2022-08-25T16:53:42;17.95;;;7.10;;
29238;SDS011;16267;48.194;11.546;2022-08-25T16:56:28;21.92;;;7.57;;
29238;SDS011;16267;48.194;11.546;2022-08-25T16:58:59;20.65;;;6.93;;
29238;SDS011;16267;48.194;11.546;2022-08-25T17:01:26;28.65;;;7.05;;
29238;SDS011;16267;48.194;11.546;2022-08-25T17:03:55;22.02;;;7.38;;